sensor_id;sensor_type;location;lat;lon;timestamp;pressure;altitude;pressure_sealevel;temperature;humidity
16094;BME280;8151;47.824;12.092;2023-02-08T00:01:24;98134.50;;;-2.18;59.89
16094;BME280;8151;47.824;12.092;2023-02-08T00:03:54;98144.00;;;-2.17;59.89
16094;BME280;8151;47.824;12.092;2023-02-08T00:06:22;98142.13;;;-2.13;59.76
16094;BME280;8151;47.824;12.092;2023-02-08T00:08:50;98137.81;;;-2.13;59.84
16094;BME280;8151;47.824;12.092;2023-02-08T00:11:20;98137.81;;;-2.13;59.80
16094;BME280;8151;47.824;12.092;2023-02-08T00:13:49;98133.63;;;-2.17;59.91
16094;BME280;8151;47.824;12.092;2023-02-08T00:16:17;98128.59;;;-2.23;60.11
16094;BME280;8151;47.824;12.092;2023-02-08T00:18:46;98129.63;;;-2.29;60.08
16094;BME280;8151;47.824;12.092;2023-02-08T00:21:16;98121.16;;;-2.34;59.99
16094;BME280;8151;47.824;12.092;2023-02-08T00:23:45;98117.16;;;-2.46;60.37
16094;BME280;8151;47.824;12.092;2023-02-08T00:26:14;98117.88;;;-2.41;60.58
16094;BME280;8151;47.824;12.092;2023-02-08T00:28:44;98124.06;;;-2.46;60.24
16094;BME280;8151;47.824;12.092;2023-02-08T00:31:12;98119.84;;;-2.49;60.35
16094;BME280;8151;47.824;12.092;2023-02-08T00:33:41;98121.63;;;-2.51;60.29
16094;BME280;8151;47.824;12.092;2023-02-08T00:36:10;98126.00;;;-2.53;60.15
16094;BME280;8151;47.824;12.092;2023-02-08T00:38:38;98122.81;;;-2.63;60.41
16094;BME280;8151;47.824;12.092;2023-02-08T00:41:07;98123.06;;;-2.72;60.36
16094;BME280;8151;47.824;12.092;2023-02-08T00:43:35;98120.72;;;-2.81;60.75
16094;BME280;8151;47.824;12.092;2023-02-08T00:46:10;98121.78;;;-2.87;60.81
16094;BME280;8151;47.824;12.092;2023-02-08T00:48:38;98126.84;;;-2.84;60.71
16094;BME280;8151;47.824;12.092;2023-02-08T00:51:08;98124.41;;;-2.88;60.56
16094;BME280;8151;47.824;12.092;2023-02-08T00:53:40;98123.59;;;-2.90;60.53
16094;BME280;8151;47.824;12.092;2023-02-08T00:56:13;98118.47;;;-2.92;60.44
16094;BME280;8151;47.824;12.092;2023-02-08T00:58:42;98118.50;;;-2.93;60.36
16094;BME280;8151;47.824;12.092;2023-02-08T01:01:12;98114.28;;;-2.98;60.56
16094;BME280;8151;47.824;12.092;2023-02-08T01:03:41;98123.72;;;-2.95;60.40
16094;BME280;8151;47.824;12.092;2023-02-08T01:06:12;98122.06;;;-2.98;60.92
16094;BME280;8151;47.824;12.092;2023-02-08T01:08:41;98122.19;;;-3.02;60.82
16094;BME280;8151;47.824;12.092;2023-02-08T01:11:12;98124.72;;;-3.01;60.71
16094;BME280;8151;47.824;12.092;2023-02-08T01:13:41;98117.72;;;-2.97;60.72
16094;BME280;8151;47.824;12.092;2023-02-08T01:16:12;98116.81;;;-2.94;60.39
16094;BME280;8151;47.824;12.092;2023-02-08T01:18:43;98114.22;;;-2.94;60.24
16094;BME280;8151;47.824;12.092;2023-02-08T01:21:14;98113.34;;;-2.95;60.45
16094;BME280;8151;47.824;12.092;2023-02-08T01:23:44;98108.38;;;-3.03;60.59
16094;BME280;8151;47.824;12.092;2023-02-08T01:26:13;98116.09;;;-3.01;60.50
16094;BME280;8151;47.824;12.092;2023-02-08T01:28:42;98108.38;;;-3.03;60.43
16094;BME280;8151;47.824;12.092;2023-02-08T01:31:14;98114.56;;;-3.08;60.56
16094;BME280;8151;47.824;12.092;2023-02-08T01:33:42;98105.13;;;-3.09;60.71
16094;BME280;8151;47.824;12.092;2023-02-08T01:36:11;98107.53;;;-3.03;60.65
16094;BME280;8151;47.824;12.092;2023-02-08T01:38:40;98105.91;;;-3.07;60.60
16094;BME280;8151;47.824;12.092;2023-02-08T01:41:14;98112.19;;;-3.16;60.66
16094;BME280;8151;47.824;12.092;2023-02-08T01:44:05;98105.31;;;-3.17;60.70
16094;BME280;8151;47.824;12.092;2023-02-08T01:46:37;98105.28;;;-3.15;60.76
16094;BME280;8151;47.824;12.092;2023-02-08T01:49:08;98111.22;;;-3.12;60.43
16094;BME280;8151;47.824;12.092;2023-02-08T01:51:41;98105.16;;;-3.11;60.35
16094;BME280;8151;47.824;12.092;2023-02-08T01:54:13;98110.28;;;-3.09;60.19
16094;BME280;8151;47.824;12.092;2023-02-08T01:56:44;98101.63;;;-3.08;60.59
16094;BME280;8151;47.824;12.092;2023-02-08T01:59:16;98102.50;;;-3.08;60.42
16094;BME280;8151;47.824;12.092;2023-02-08T02:01:48;98099.94;;;-3.09;60.35
16094;BME280;8151;47.824;12.092;2023-02-08T02:04:18;98106.75;;;-3.07;60.30
16094;BME280;8151;47.824;12.092;2023-02-08T02:06:50;98099.72;;;-3.02;60.39
16094;BME280;8151;47.824;12.092;2023-02-08T02:09:25;98091.94;;;-3.00;60.27
16094;BME280;8151;47.824;12.092;2023-02-08T02:11:56;98098.16;;;-3.07;60.55
16094;BME280;8151;47.824;12.092;2023-02-08T02:14:25;98094.75;;;-3.09;60.64
16094;BME280;8151;47.824;12.092;2023-02-08T02:16:54;98092.19;;;-3.11;60.76
16094;BME280;8151;47.824;12.092;2023-02-08T02:19:32;98086.09;;;-3.08;60.34
16094;BME280;8151;47.824;12.092;2023-02-08T02:22:17;98092.94;;;-3.06;60.19
16094;BME280;8151;47.824;12.092;2023-02-08T02:25:11;98093.78;;;-3.05;60.35
16094;BME280;8151;47.824;12.092;2023-02-08T02:28:21;98095.44;;;-3.03;60.33
16094;BME280;8151;47.824;12.092;2023-02-08T02:31:21;98085.84;;;-2.99;60.34
16094;BME280;8151;47.824;12.092;2023-02-08T02:33:59;98084.09;;;-2.99;60.06
16094;BME280;8151;47.824;12.092;2023-02-08T02:36:38;98090.25;;;-3.03;60.13
16094;BME280;8151;47.824;12.092;2023-02-08T02:39:16;98080.91;;;-3.08;60.14
16094;BME280;8151;47.824;12.092;2023-02-08T02:41:53;98087.97;;;-3.13;60.35
16094;BME280;8151;47.824;12.092;2023-02-08T02:44:50;98091.47;;;-3.16;60.37
16094;BME280;8151;47.824;12.092;2023-02-08T02:47:29;98085.00;;;-3.32;60.78
16094;BME280;8151;47.824;12.092;2023-02-08T02:50:03;98084.47;;;-3.45;60.65
16094;BME280;8151;47.824;12.092;2023-02-08T02:52:37;98089.13;;;-3.58;60.75
16094;BME280;8151;47.824;12.092;2023-02-08T02:55:09;98086.50;;;-3.57;61.04
16094;BME280;8151;47.824;12.092;2023-02-08T02:57:43;98091.63;;;-3.55;60.49
16094;BME280;8151;47.824;12.092;2023-02-08T03:00:18;98091.09;;;-3.68;60.69
16094;BME280;8151;47.824;12.092;2023-02-08T03:02:50;98092.94;;;-3.73;61.00
16094;BME280;8151;47.824;12.092;2023-02-08T03:05:18;98085.28;;;-3.78;60.75
16094;BME280;8151;47.824;12.092;2023-02-08T03:08:00;98084.41;;;-3.78;60.90
16094;BME280;8151;47.824;12.092;2023-02-08T03:10:49;98083.41;;;-3.72;60.61
16094;BME280;8151;47.824;12.092;2023-02-08T03:13:26;98083.41;;;-3.72;60.46
16094;BME280;8151;47.824;12.092;2023-02-08T03:16:03;98086.16;;;-3.79;60.45
16094;BME280;8151;47.824;12.092;2023-02-08T03:18:42;98093.03;;;-3.76;60.70
16094;BME280;8151;47.824;12.092;2023-02-08T03:21:18;98093.91;;;-3.79;60.51
16094;BME280;8151;47.824;12.092;2023-02-08T03:23:54;98089.91;;;-3.90;60.86
16094;BME280;8151;47.824;12.092;2023-02-08T03:26:31;98088.44;;;-4.02;61.03
16094;BME280;8151;47.824;12.092;2023-02-08T03:29:05;98087.63;;;-4.04;61.11
16094;BME280;8151;47.824;12.092;2023-02-08T03:31:40;98088.34;;;-3.98;60.76
16094;BME280;8151;47.824;12.092;2023-02-08T03:34:16;98096.03;;;-3.94;60.78
16094;BME280;8151;47.824;12.092;2023-02-08T03:36:49;98090.00;;;-3.93;61.01
16094;BME280;8151;47.824;12.092;2023-02-08T03:39:22;98092.59;;;-3.95;60.90
16094;BME280;8151;47.824;12.092;2023-02-08T03:41:54;98083.13;;;-3.96;60.50
16094;BME280;8151;47.824;12.092;2023-02-08T03:44:30;98086.56;;;-3.96;60.75
16094;BME280;8151;47.824;12.092;2023-02-08T03:47:05;98091.88;;;-4.02;60.74
16094;BME280;8151;47.824;12.092;2023-02-08T03:49:36;98082.63;;;-4.10;60.68
16094;BME280;8151;47.824;12.092;2023-02-08T03:52:08;98083.50;;;-4.13;60.79
16094;BME280;8151;47.824;12.092;2023-02-08T03:54:41;98088.84;;;-4.21;60.76
16094;BME280;8151;47.824;12.092;2023-02-08T03:57:14;98095.22;;;-4.34;61.10
16094;BME280;8151;47.824;12.092;2023-02-08T03:59:49;98096.09;;;-4.35;61.25
16094;BME280;8151;47.824;12.092;2023-02-08T04:02:20;98089.16;;;-4.33;61.32
16094;BME280;8151;47.824;12.092;2023-02-08T04:04:52;98084.88;;;-4.34;60.84
16094;BME280;8151;47.824;12.092;2023-02-08T04:07:21;98086.56;;;-4.33;60.88
16094;BME280;8151;47.824;12.092;2023-02-08T04:09:49;98089.91;;;-4.28;61.01
16094;BME280;8151;47.824;12.092;2023-02-08T04:12:18;98088.91;;;-4.22;60.77
16094;BME280;8151;47.824;12.092;2023-02-08T04:14:46;98088.09;;;-4.24;60.58
16094;BME280;8151;47.824;12.092;2023-02-08T04:17:14;98088.13;;;-4.26;61.01
16094;BME280;8151;47.824;12.092;2023-02-08T04:19:43;98090.03;;;-4.34;60.38
16094;BME280;8151;47.824;12.092;2023-02-08T04:22:15;98087.63;;;-4.42;60.62
16094;BME280;8151;47.824;12.092;2023-02-08T04:24:43;98080.25;;;-4.60;61.20
16094;BME280;8151;47.824;12.092;2023-02-08T04:27:11;98083.09;;;-4.72;61.18
16094;BME280;8151;47.824;12.092;2023-02-08T04:29:40;98077.75;;;-4.63;60.90
16094;BME280;8151;47.824;12.092;2023-02-08T04:32:08;98079.28;;;-4.55;60.62
16094;BME280;8151;47.824;12.092;2023-02-08T04:34:37;98081.72;;;-4.48;60.79
16094;BME280;8151;47.824;12.092;2023-02-08T04:37:06;98080.03;;;-4.49;60.58
16094;BME280;8151;47.824;12.092;2023-02-08T04:39:36;98073.28;;;-4.55;60.92
16094;BME280;8151;47.824;12.092;2023-02-08T04:42:05;98072.31;;;-4.51;60.54
16094;BME280;8151;47.824;12.092;2023-02-08T04:44:33;98069.78;;;-4.54;61.12
16094;BME280;8151;47.824;12.092;2023-02-08T04:47:02;98059.38;;;-4.49;60.85
16094;BME280;8151;47.824;12.092;2023-02-08T04:49:30;98061.97;;;-4.51;61.36
16094;BME280;8151;47.824;12.092;2023-02-08T04:51:58;98059.38;;;-4.49;61.15
16094;BME280;8151;47.824;12.092;2023-02-08T04:54:27;98056.53;;;-4.39;60.50
16094;BME280;8151;47.824;12.092;2023-02-08T04:56:56;98057.28;;;-4.33;60.63
16094;BME280;8151;47.824;12.092;2023-02-08T04:59:25;98058.91;;;-4.29;60.66
16094;BME280;8151;47.824;12.092;2023-02-08T05:01:53;98057.25;;;-4.32;60.84
16094;BME280;8151;47.824;12.092;2023-02-08T05:04:22;98057.28;;;-4.33;60.67
16094;BME280;8151;47.824;12.092;2023-02-08T05:06:50;98052.88;;;-4.28;60.68
16094;BME280;8151;47.824;12.092;2023-02-08T05:09:18;98056.19;;;-4.23;60.46
16094;BME280;8151;47.824;12.092;2023-02-08T05:11:47;98054.41;;;-4.21;60.52
16094;BME280;8151;47.824;12.092;2023-02-08T05:14:17;98053.56;;;-4.22;60.54
16094;BME280;8151;47.824;12.092;2023-02-08T05:16:45;98056.13;;;-4.20;60.19
16094;BME280;8151;47.824;12.092;2023-02-08T05:19:13;98044.06;;;-4.21;60.13
16094;BME280;8151;47.824;12.092;2023-02-08T05:21:42;98043.28;;;-4.25;60.75
16094;BME280;8151;47.824;12.092;2023-02-08T05:24:10;98050.19;;;-4.24;60.45
16094;BME280;8151;47.824;12.092;2023-02-08T05:26:39;98036.28;;;-4.20;60.67
16094;BME280;8151;47.824;12.092;2023-02-08T05:29:07;98039.75;;;-4.21;60.58
16094;BME280;8151;47.824;12.092;2023-02-08T05:31:38;98044.91;;;-4.21;60.77
16094;BME280;8151;47.824;12.092;2023-02-08T05:34:06;98033.75;;;-4.21;60.63
16094;BME280;8151;47.824;12.092;2023-02-08T05:36:35;98041.47;;;-4.20;60.54
16094;BME280;8151;47.824;12.092;2023-02-08T05:39:03;98041.63;;;-4.26;60.56
16094;BME280;8151;47.824;12.092;2023-02-08T05:41:32;98035.63;;;-4.28;60.71
16094;BME280;8151;47.824;12.092;2023-02-08T05:44:00;98037.38;;;-4.28;60.90
16094;BME280;8151;47.824;12.092;2023-02-08T05:46:32;98037.31;;;-4.27;60.77
16094;BME280;8151;47.824;12.092;2023-02-08T05:49:05;98034.81;;;-4.30;60.50
16094;BME280;8151;47.824;12.092;2023-02-08T05:51:34;98044.28;;;-4.30;60.97
16094;BME280;8151;47.824;12.092;2023-02-08T05:54:02;98037.47;;;-4.33;60.52
16094;BME280;8151;47.824;12.092;2023-02-08T05:56:31;98046.97;;;-4.33;60.90
16094;BME280;8151;47.824;12.092;2023-02-08T05:58:59;98049.50;;;-4.32;60.24
16094;BME280;8151;47.824;12.092;2023-02-08T06:01:28;98054.72;;;-4.33;60.61
16094;BME280;8151;47.824;12.092;2023-02-08T06:03:58;98050.38;;;-4.33;60.24
16094;BME280;8151;47.824;12.092;2023-02-08T06:06:28;98052.94;;;-4.31;60.69
16094;BME280;8151;47.824;12.092;2023-02-08T06:08:56;98059.84;;;-4.32;60.54
16094;BME280;8151;47.824;12.092;2023-02-08T06:11:24;98054.72;;;-4.33;60.62
16094;BME280;8151;47.824;12.092;2023-02-08T06:13:54;98056.56;;;-4.40;60.83
16094;BME280;8151;47.824;12.092;2023-02-08T06:16:23;98058.28;;;-4.39;60.37
16094;BME280;8151;47.824;12.092;2023-02-08T06:18:51;98060.84;;;-4.39;60.83
16094;BME280;8151;47.824;12.092;2023-02-08T06:21:19;98062.63;;;-4.41;60.92
16094;BME280;8151;47.824;12.092;2023-02-08T06:23:51;98062.66;;;-4.43;60.43
16094;BME280;8151;47.824;12.092;2023-02-08T06:26:20;98066.97;;;-4.43;60.79
16094;BME280;8151;47.824;12.092;2023-02-08T06:28:48;98076.66;;;-4.51;60.61
16094;BME280;8151;47.824;12.092;2023-02-08T06:31:16;98074.28;;;-4.62;61.32
16094;BME280;8151;47.824;12.092;2023-02-08T06:33:45;98072.63;;;-4.65;60.79
16094;BME280;8151;47.824;12.092;2023-02-08T06:36:13;98079.63;;;-4.71;61.39
16094;BME280;8151;47.824;12.092;2023-02-08T06:38:41;98078.84;;;-4.75;61.41
16094;BME280;8151;47.824;12.092;2023-02-08T06:41:11;98077.06;;;-4.73;61.42
16094;BME280;8151;47.824;12.092;2023-02-08T06:43:40;98076.22;;;-4.73;60.94
16094;BME280;8151;47.824;12.092;2023-02-08T06:46:09;98075.38;;;-4.74;61.25
16094;BME280;8151;47.824;12.092;2023-02-08T06:48:37;98077.97;;;-4.74;60.79
16094;BME280;8151;47.824;12.092;2023-02-08T06:51:05;98077.19;;;-4.79;61.00
16094;BME280;8151;47.824;12.092;2023-02-08T06:53:34;98070.25;;;-4.76;61.25
16094;BME280;8151;47.824;12.092;2023-02-08T06:56:02;98068.47;;;-4.72;61.15
16094;BME280;8151;47.824;12.092;2023-02-08T06:58:32;98074.25;;;-4.61;60.72
16094;BME280;8151;47.824;12.092;2023-02-08T07:01:00;98080.03;;;-4.49;60.59
16094;BME280;8151;47.824;12.092;2023-02-08T07:03:29;98079.81;;;-4.40;60.62
16094;BME280;8151;47.824;12.092;2023-02-08T07:05:57;98082.38;;;-4.39;60.64
16094;BME280;8151;47.824;12.092;2023-02-08T07:08:32;98078.03;;;-4.37;60.71
16094;BME280;8151;47.824;12.092;2023-02-08T07:11:05;98087.19;;;-4.23;60.33
16094;BME280;8151;47.824;12.092;2023-02-08T07:13:36;98090.22;;;-4.04;60.34
16094;BME280;8151;47.824;12.092;2023-02-08T07:16:05;98084.75;;;-3.92;60.37
16094;BME280;8151;47.824;12.092;2023-02-08T07:18:34;98092.31;;;-3.84;60.09
16094;BME280;8151;47.824;12.092;2023-02-08T07:21:04;98094.75;;;-3.78;60.27
16094;BME280;8151;47.824;12.092;2023-02-08T07:23:32;98090.31;;;-3.71;60.44
16094;BME280;8151;47.824;12.092;2023-02-08T07:26:02;98086.69;;;-3.64;60.07
16094;BME280;8151;47.824;12.092;2023-02-08T07:28:31;98083.91;;;-3.57;60.34
16094;BME280;8151;47.824;12.092;2023-02-08T07:31:05;98087.19;;;-3.50;60.17
16094;BME280;8151;47.824;12.092;2023-02-08T07:33:33;98088.03;;;-3.49;60.33
16094;BME280;8151;47.824;12.092;2023-02-08T07:36:02;98086.16;;;-3.43;60.36
16094;BME280;8151;47.824;12.092;2023-02-08T07:38:31;98087.66;;;-3.36;60.73
16094;BME280;8151;47.824;12.092;2023-02-08T07:41:01;98078.97;;;-3.31;60.26
16094;BME280;8151;47.824;12.092;2023-02-08T07:43:30;98083.00;;;-3.21;60.63
16094;BME280;8151;47.824;12.092;2023-02-08T07:46:06;98081.19;;;-3.18;60.62
16094;BME280;8151;47.824;12.092;2023-02-08T07:48:34;98088.88;;;-3.16;60.43
16094;BME280;8151;47.824;12.092;2023-02-08T07:51:07;98088.75;;;-3.10;60.83
16094;BME280;8151;47.824;12.092;2023-02-08T07:53:36;98084.19;;;-3.02;61.03
16094;BME280;8151;47.824;12.092;2023-02-08T07:56:05;98082.16;;;-2.90;60.72
16094;BME280;8151;47.824;12.092;2023-02-08T07:58:33;98082.78;;;-2.82;60.75
16094;BME280;8151;47.824;12.092;2023-02-08T08:01:02;98082.56;;;-2.74;60.64
16094;BME280;8151;47.824;12.092;2023-02-08T08:03:48;98075.47;;;-2.68;60.77
16094;BME280;8151;47.824;12.092;2023-02-08T08:06:17;98076.91;;;-2.58;60.67
16094;BME280;8151;47.824;12.092;2023-02-08T08:08:46;98083.59;;;-2.50;60.52
16094;BME280;8151;47.824;12.092;2023-02-08T08:11:15;98080.78;;;-2.43;60.70
16094;BME280;8151;47.824;12.092;2023-02-08T08:13:44;98081.47;;;-2.36;60.40
16094;BME280;8151;47.824;12.092;2023-02-08T08:16:13;98078.69;;;-2.30;60.88
16094;BME280;8151;47.824;12.092;2023-02-08T08:18:41;98072.44;;;-2.24;60.66
16094;BME280;8151;47.824;12.092;2023-02-08T08:21:11;98081.00;;;-2.21;60.69
16094;BME280;8151;47.824;12.092;2023-02-08T08:23:41;98080.03;;;-2.18;60.75
16094;BME280;8151;47.824;12.092;2023-02-08T08:26:15;98077.28;;;-2.13;60.70
16094;BME280;8151;47.824;12.092;2023-02-08T08:28:44;98065.84;;;-2.06;60.86
16094;BME280;8151;47.824;12.092;2023-02-08T08:31:15;98073.38;;;-1.99;61.19
16094;BME280;8151;47.824;12.092;2023-02-08T08:33:44;98063.69;;;-1.92;60.89
16094;BME280;8151;47.824;12.092;2023-02-08T08:36:14;98066.91;;;-1.85;61.02
16094;BME280;8151;47.824;12.092;2023-02-08T08:38:42;98066.72;;;-1.79;60.88
16094;BME280;8151;47.824;12.092;2023-02-08T08:41:12;98065.56;;;-1.70;60.83
16094;BME280;8151;47.824;12.092;2023-02-08T08:43:41;98058.38;;;-1.62;60.92
16094;BME280;8151;47.824;12.092;2023-02-08T08:46:10;98056.41;;;-1.55;61.07
16094;BME280;8151;47.824;12.092;2023-02-08T08:48:38;98057.06;;;-1.49;61.01
16094;BME280;8151;47.824;12.092;2023-02-08T08:51:07;98055.94;;;-1.42;61.02
16094;BME280;8151;47.824;12.092;2023-02-08T08:53:36;98060.94;;;-1.35;61.00
16094;BME280;8151;47.824;12.092;2023-02-08T08:56:05;98063.19;;;-1.26;61.10
16094;BME280;8151;47.824;12.092;2023-02-08T08:58:34;98057.88;;;-1.22;61.00
16094;BME280;8151;47.824;12.092;2023-02-08T09:01:02;98059.44;;;-1.17;61.27
16094;BME280;8151;47.824;12.092;2023-02-08T09:03:31;98050.59;;;-1.12;61.08
16094;BME280;8151;47.824;12.092;2023-02-08T09:05:59;98055.56;;;-1.06;61.18
16094;BME280;8151;47.824;12.092;2023-02-08T09:08:28;98059.53;;;-0.95;61.13
16094;BME280;8151;47.824;12.092;2023-02-08T09:11:03;98061.84;;;-0.88;61.25
16094;BME280;8151;47.824;12.092;2023-02-08T09:13:32;98065.13;;;-0.83;61.27
16094;BME280;8151;47.824;12.092;2023-02-08T09:16:04;98069.28;;;-0.77;61.25
16094;BME280;8151;47.824;12.092;2023-02-08T09:18:35;98078.59;;;-0.71;61.05
16094;BME280;8151;47.824;12.092;2023-02-08T09:21:07;98074.00;;;-0.65;61.12
16094;BME280;8151;47.824;12.092;2023-02-08T09:23:36;98081.53;;;-0.57;61.30
16094;BME280;8151;47.824;12.092;2023-02-08T09:26:12;98086.50;;;-0.51;61.42
16094;BME280;8151;47.824;12.092;2023-02-08T09:28:41;98083.59;;;-0.43;61.44
16094;BME280;8151;47.824;12.092;2023-02-08T09:31:10;98083.31;;;-0.35;61.15
16094;BME280;8151;47.824;12.092;2023-02-08T09:33:39;98079.53;;;-0.27;61.25
16094;BME280;8151;47.824;12.092;2023-02-08T09:36:08;98076.69;;;-0.21;61.04
16094;BME280;8151;47.824;12.092;2023-02-08T09:38:37;98084.19;;;-0.13;61.01
16094;BME280;8151;47.824;12.092;2023-02-08T09:41:22;98093.38;;;-0.04;61.33
16094;BME280;8151;47.824;12.092;2023-02-08T09:43:59;98087.66;;;0.10;61.50
16094;BME280;8151;47.824;12.092;2023-02-08T09:46:36;98094.13;;;0.22;61.85
16094;BME280;8151;47.824;12.092;2023-02-08T09:49:10;98081.44;;;0.34;61.41
16094;BME280;8151;47.824;12.092;2023-02-08T09:51:45;98086.28;;;0.44;61.43
16094;BME280;8151;47.824;12.092;2023-02-08T09:54:18;98084.28;;;0.50;62.08
16094;BME280;8151;47.824;12.092;2023-02-08T09:56:50;98075.25;;;0.59;61.79
16094;BME280;8151;47.824;12.092;2023-02-08T09:59:22;98085.34;;;0.67;61.94
16094;BME280;8151;47.824;12.092;2023-02-08T10:01:57;98072.00;;;0.74;61.83
16094;BME280;8151;47.824;12.092;2023-02-08T10:04:35;98080.31;;;0.83;62.03
16094;BME280;8151;47.824;12.092;2023-02-08T10:07:05;98074.78;;;0.90;61.77
16094;BME280;8151;47.824;12.092;2023-02-08T10:09:33;98079.66;;;0.98;62.02
16094;BME280;8151;47.824;12.092;2023-02-08T10:12:13;98069.81;;;1.05;61.71
16094;BME280;8151;47.824;12.092;2023-02-08T10:14:57;98066.97;;;1.11;62.17
16094;BME280;8151;47.824;12.092;2023-02-08T10:17:42;98056.25;;;1.17;61.72
16094;BME280;8151;47.824;12.092;2023-02-08T10:20:22;98065.06;;;1.33;62.03
16094;BME280;8151;47.824;12.092;2023-02-08T10:22:59;98055.06;;;1.43;61.33
16094;BME280;8151;47.824;12.092;2023-02-08T10:25:44;98059.16;;;1.49;61.39
16094;BME280;8151;47.824;12.092;2023-02-08T10:28:36;98039.66;;;1.57;61.49
16094;BME280;8151;47.824;12.092;2023-02-08T10:31:14;98039.91;;;1.70;61.31
16094;BME280;8151;47.824;12.092;2023-02-08T10:33:48;98043.09;;;1.77;61.41
16094;BME280;8151;47.824;12.092;2023-02-08T10:36:21;98034.84;;;1.86;61.12
16094;BME280;8151;47.824;12.092;2023-02-08T10:38:54;98025.94;;;1.90;61.10
16094;BME280;8151;47.824;12.092;2023-02-08T10:41:28;98034.38;;;1.95;60.94
16094;BME280;8151;47.824;12.092;2023-02-08T10:44:04;98023.84;;;1.97;60.96
16094;BME280;8151;47.824;12.092;2023-02-08T10:46:44;98028.94;;;2.00;60.78
16094;BME280;8151;47.824;12.092;2023-02-08T10:49:19;98028.56;;;2.08;60.97
16094;BME280;8151;47.824;12.092;2023-02-08T10:51:50;98024.97;;;2.10;60.58
16094;BME280;8151;47.824;12.092;2023-02-08T10:54:18;98022.22;;;2.13;60.73
16094;BME280;8151;47.824;12.092;2023-02-08T10:56:50;98028.03;;;2.19;60.63
16094;BME280;8151;47.824;12.092;2023-02-08T10:59:23;98025.13;;;2.25;60.54
16094;BME280;8151;47.824;12.092;2023-02-08T11:01:53;98013.44;;;2.32;60.29
16094;BME280;8151;47.824;12.092;2023-02-08T11:04:23;98014.78;;;2.41;59.85
16094;BME280;8151;47.824;12.092;2023-02-08T11:06:52;98016.06;;;2.49;59.82
16094;BME280;8151;47.824;12.092;2023-02-08T11:09:23;98006.31;;;2.53;59.90
16094;BME280;8151;47.824;12.092;2023-02-08T11:11:52;97998.84;;;2.63;59.39
16094;BME280;8151;47.824;12.092;2023-02-08T11:14:25;97994.13;;;2.69;59.46
16094;BME280;8151;47.824;12.092;2023-02-08T11:17:25;97996.34;;;2.77;59.18
16094;BME280;8151;47.824;12.092;2023-02-08T11:19:54;97990.97;;;2.80;59.38
16094;BME280;8151;47.824;12.092;2023-02-08T11:22:25;97988.22;;;2.83;59.53
16094;BME280;8151;47.824;12.092;2023-02-08T11:24:57;97984.25;;;2.92;59.05
16094;BME280;8151;47.824;12.092;2023-02-08T11:27:31;97963.69;;;3.02;58.92
16094;BME280;8151;47.824;12.092;2023-02-08T11:30:19;97968.13;;;3.17;58.62
16094;BME280;8151;47.824;12.092;2023-02-08T11:33:13;97980.63;;;3.28;58.49
16094;BME280;8151;47.824;12.092;2023-02-08T11:35:53;97975.75;;;3.38;58.60
16094;BME280;8151;47.824;12.092;2023-02-08T11:38:23;97978.94;;;3.43;58.60
16094;BME280;8151;47.824;12.092;2023-02-08T11:40:55;97977.06;;;3.45;58.50
16094;BME280;8151;47.824;12.092;2023-02-08T11:43:26;97971.69;;;3.48;58.11
16094;BME280;8151;47.824;12.092;2023-02-08T11:45:58;97979.94;;;3.56;58.02
16094;BME280;8151;47.824;12.092;2023-02-08T11:48:38;97963.41;;;3.55;58.02
16094;BME280;8151;47.824;12.092;2023-02-08T11:51:08;97957.75;;;3.63;57.92
16094;BME280;8151;47.824;12.092;2023-02-08T11:53:40;97955.81;;;3.67;58.00
16094;BME280;8151;47.824;12.092;2023-02-08T11:56:18;97949.47;;;3.71;57.81
16094;BME280;8151;47.824;12.092;2023-02-08T11:59:00;97943.72;;;3.80;57.35
16094;BME280;8151;47.824;12.092;2023-02-08T12:01:32;97953.00;;;3.86;57.45
16094;BME280;8151;47.824;12.092;2023-02-08T12:04:03;97955.16;;;3.93;57.25
16094;BME280;8151;47.824;12.092;2023-02-08T12:06:50;97952.22;;;4.00;56.52
16094;BME280;8151;47.824;12.092;2023-02-08T12:09:37;97951.34;;;3.99;56.57
16094;BME280;8151;47.824;12.092;2023-02-08T12:12:17;97950.34;;;4.02;57.00
16094;BME280;8151;47.824;12.092;2023-02-08T12:15:00;97936.22;;;4.04;56.60
16094;BME280;8151;47.824;12.092;2023-02-08T12:17:45;97935.09;;;4.08;56.47
16094;BME280;8151;47.824;12.092;2023-02-08T12:20:36;97925.00;;;4.17;56.53
16094;BME280;8151;47.824;12.092;2023-02-08T12:23:17;97923.66;;;4.25;56.36
16094;BME280;8151;47.824;12.092;2023-02-08T12:25:55;97926.94;;;4.29;56.59
16094;BME280;8151;47.824;12.092;2023-02-08T12:28:38;97916.09;;;4.35;56.36
16094;BME280;8151;47.824;12.092;2023-02-08T12:31:16;97914.38;;;4.34;56.23
16094;BME280;8151;47.824;12.092;2023-02-08T12:33:58;97912.81;;;4.31;56.37
16094;BME280;8151;47.824;12.092;2023-02-08T12:36:41;97907.47;;;4.33;56.32
16094;BME280;8151;47.824;12.092;2023-02-08T12:39:28;97901.13;;;4.37;56.41
16094;BME280;8151;47.824;12.092;2023-02-08T12:42:36;97893.06;;;4.40;55.75
16094;BME280;8151;47.824;12.092;2023-02-08T12:45:52;97885.84;;;4.44;55.58
16094;BME280;8151;47.824;12.092;2023-02-08T12:48:36;97869.28;;;4.43;56.04
16094;BME280;8151;47.824;12.092;2023-02-08T12:51:17;97872.66;;;4.45;56.17
16094;BME280;8151;47.824;12.092;2023-02-08T12:53:50;97872.66;;;4.45;56.02
16094;BME280;8151;47.824;12.092;2023-02-08T12:56:24;97872.41;;;4.50;55.84
16094;BME280;8151;47.824;12.092;2023-02-08T12:58:57;97863.31;;;4.56;55.42
16094;BME280;8151;47.824;12.092;2023-02-08T13:01:42;97861.44;;;4.58;55.44
16094;BME280;8151;47.824;12.092;2023-02-08T13:04:14;97856.75;;;4.63;55.46
16094;BME280;8151;47.824;12.092;2023-02-08T13:06:49;97858.97;;;4.69;55.55
16094;BME280;8151;47.824;12.092;2023-02-08T13:09:32;97854.13;;;4.77;55.12
16094;BME280;8151;47.824;12.092;2023-02-08T13:12:10;97852.91;;;4.83;55.42
16094;BME280;8151;47.824;12.092;2023-02-08T13:14:44;97848.41;;;4.85;55.17
16094;BME280;8151;47.824;12.092;2023-02-08T13:17:17;97837.81;;;4.86;54.77
16094;BME280;8151;47.824;12.092;2023-02-08T13:19:55;97839.50;;;4.87;54.87
16094;BME280;8151;47.824;12.092;2023-02-08T13:22:34;97835.09;;;4.88;55.26
16094;BME280;8151;47.824;12.092;2023-02-08T13:25:14;97843.63;;;4.77;54.79
16094;BME280;8151;47.824;12.092;2023-02-08T13:27:44;97838.56;;;4.74;55.01
16094;BME280;8151;47.824;12.092;2023-02-08T13:30:17;97830.22;;;4.82;55.22
16094;BME280;8151;47.824;12.092;2023-02-08T13:32:47;97826.19;;;4.90;54.90